Airfield :
LOGIN :

Register | Disclaimer

   EN    FR    IT 

 










Legend :    VFR   Marginal VFR   IFR   Intensive IFR   Very Intensive IFR
Visi :
Ceiling :
>= 8 km
>= 3000ft
5 to 8 km
1000 to 3000 ft
1500m to 5 km
500 to 1000 ft
800 to 1500m
200 to 500 ft
< 800m
< 200 ft
Symbols :   Thunderstorms  Fog  Heavy snow  Heavy precipitations  Wind > 20 kt
SIGMETs :     Misc.  Thunderstorms  Icing  Turbulence  Mountain Waves  Volcanic Ashes







- Airport Elevation : 74 ft
- IATA code : EIN


EHEH - Eindhoven

CURRENT METAR :
  • 161139Z AUTO 21015KT 9999 BKN014 OVC016 06/03 Q1009 GRN 22015KT 9999 FEW012 SCT015 BKN017

EXPIRED METARs :
  • 161135Z AUTO 21016KT 9999 FEW012 OVC015 06/03 Q1009 WHT 22015KT 9999 FEW012 SCT015 BKN017
  • 161125Z AUTO 20016KT 180V240 9999 FEW012/// OVC015/// 06/03 Q1009 WHT 22015KT 9999 FEW012 SCT015 BKN017
  • 161112Z AUTO 21016KT 9999 OVC015/// 06/03 Q1009 WHT 22012KT 9999 SCT015 BKN017
  • 161100Z AUTO 20012KT 9999 SCT014 OVC017 06/03 Q1009 GRN 22012KT 9999 FEW020 OVC030 TEMPO FEW018 SCT020 OVC030
  • 161025Z AUTO 21013KT 9999 OVC015 06/03 Q1010 WHT 22012KT 9999 FEW020 OVC030 TEMPO FEW018 SCT020 OVC030
  • 160955Z AUTO 21016KT 9999 OVC016 06/03 Q1010 WHT 22012KT 9999 FEW020 OVC030 TEMPO FEW018 SCT020 OVC030
  • 160946Z AUTO 21014KT 9999 BKN017 BKN025 OVC029 06/03 Q1010 WHT 22012KT 9999 FEW020 OVC030 TEMPO FEW018 SCT020 OVC030
  • 160937Z AUTO 21014KT 9999 SCT017 OVC027 06/03 Q1010 WHT 22012KT 9999 FEW020 OVC030 TEMPO FEW018 SCT020 OVC030
  • 160925Z AUTO 21015KT 190V250 9999 FEW018 BKN028 OVC033 06/03 Q1010 BLU 22012KT 9999 FEW020 OVC030 TEMPO FEW018 SCT020 OVC030
  • 160914Z AUTO 21015KT 190V250 9999 SCT018 OVC029 06/03 Q1010 WHT 22012KT 9999 FEW020 OVC030 TEMPO FEW018 SCT020 OVC030
  • 160855Z AUTO 21014KT 9999 FEW019 OVC031 06/03 Q1010 BLU 22012KT 9999 FEW020 OVC030 TEMPO FEW018 SCT020 OVC030

TAF TAF EHEH
Valid from the 16 at 06:00 until the 17 at 12:00 UTC


160538Z 1606/1712 21012KT 9999 OVC030
BECMG 1620/1622 -RA OVC015
TEMPO 1618/1623 26016G27KT
PROB40
TEMPO 1622/1701 4000 RA DZ BKN010 OVC020
BECMG 1700/1703 25013KT 9999 NSW SCT040
TEMPO 1707/1712 29014G24KT 4000 SHRA SCT012 BKN018CB BKN025
PROB30
TEMPO 1709/1712 30016G30KT 3000 SHRA TS SCT008 BKN012 BKN015CB
No reported NOTAMs for that airfield.



MET'MAP, your aeronautical weather chart ! - Copyright ORBIFLY December 2007 - Disclaimer

ORBIFLY MET'MAP TEAM :

Programming & Development : Alexandra Zaïnal
Concept & Development : Baudouin d'Aumeries
Co-Development & Prog : Marc-Olivier Méhu
Technical & hardware support : Manuel Goepfert

Contact : metmap@orbifly.com




SOURCES & CREDITS :

   NOAA